sensor_id;sensor_type;location;lat;lon;timestamp;P1;durP1;ratioP1;P2;durP2;ratioP2
24801;SDS011;12898;50.520;12.152;2022-10-26T00:00:49;12.00;;;5.20;;
24801;SDS011;12898;50.520;12.152;2022-10-26T00:03:15;8.17;;;4.97;;
24801;SDS011;12898;50.520;12.152;2022-10-26T00:05:42;9.33;;;4.83;;
24801;SDS011;12898;50.520;12.152;2022-10-26T00:08:08;8.70;;;4.67;;
24801;SDS011;12898;50.520;12.152;2022-10-26T00:10:35;11.30;;;4.87;;
24801;SDS011;12898;50.520;12.152;2022-10-26T00:13:02;9.37;;;5.10;;
24801;SDS011;12898;50.520;12.152;2022-10-26T00:15:32;8.83;;;4.70;;
24801;SDS011;12898;50.520;12.152;2022-10-26T00:17:58;9.07;;;5.00;;
24801;SDS011;12898;50.520;12.152;2022-10-26T00:20:24;9.43;;;5.23;;
24801;SDS011;12898;50.520;12.152;2022-10-26T00:22:49;9.40;;;4.93;;
24801;SDS011;12898;50.520;12.152;2022-10-26T00:25:15;10.53;;;5.07;;
24801;SDS011;12898;50.520;12.152;2022-10-26T00:27:41;8.50;;;4.90;;
24801;SDS011;12898;50.520;12.152;2022-10-26T00:30:07;11.73;;;6.00;;
24801;SDS011;12898;50.520;12.152;2022-10-26T00:32:33;8.53;;;5.10;;
24801;SDS011;12898;50.520;12.152;2022-10-26T00:34:59;9.37;;;4.67;;
24801;SDS011;12898;50.520;12.152;2022-10-26T00:37:25;8.87;;;4.80;;
24801;SDS011;12898;50.520;12.152;2022-10-26T00:39:50;10.53;;;5.10;;
24801;SDS011;12898;50.520;12.152;2022-10-26T00:42:20;9.20;;;5.07;;
24801;SDS011;12898;50.520;12.152;2022-10-26T00:50:30;12.10;;;5.70;;
24801;SDS011;12898;50.520;12.152;2022-10-26T00:53:02;11.07;;;5.87;;
24801;SDS011;12898;50.520;12.152;2022-10-26T00:55:31;14.13;;;5.67;;
24801;SDS011;12898;50.520;12.152;2022-10-26T00:58:02;15.63;;;6.73;;
24801;SDS011;12898;50.520;12.152;2022-10-26T01:00:30;13.03;;;7.73;;
24801;SDS011;12898;50.520;12.152;2022-10-26T01:02:57;17.00;;;8.33;;
24801;SDS011;12898;50.520;12.152;2022-10-26T01:05:29;16.67;;;7.90;;
24801;SDS011;12898;50.520;12.152;2022-10-26T01:07:55;14.23;;;7.77;;
24801;SDS011;12898;50.520;12.152;2022-10-26T01:10:22;14.57;;;7.50;;
24801;SDS011;12898;50.520;12.152;2022-10-26T01:12:49;12.10;;;5.90;;
24801;SDS011;12898;50.520;12.152;2022-10-26T01:15:16;13.97;;;7.13;;
24801;SDS011;12898;50.520;12.152;2022-10-26T01:26:25;11.60;;;6.73;;
24801;SDS011;12898;50.520;12.152;2022-10-26T01:31:33;12.20;;;6.03;;
24801;SDS011;12898;50.520;12.152;2022-10-26T01:34:16;12.83;;;6.33;;
24801;SDS011;12898;50.520;12.152;2022-10-26T01:37:01;9.17;;;5.23;;
24801;SDS011;12898;50.520;12.152;2022-10-26T01:42:16;12.63;;;6.93;;
24801;SDS011;12898;50.520;12.152;2022-10-26T01:44:47;14.43;;;8.00;;
24801;SDS011;12898;50.520;12.152;2022-10-26T01:47:20;14.80;;;7.20;;
24801;SDS011;12898;50.520;12.152;2022-10-26T01:49:49;13.40;;;7.33;;
24801;SDS011;12898;50.520;12.152;2022-10-26T01:52:19;16.10;;;7.77;;
24801;SDS011;12898;50.520;12.152;2022-10-26T01:54:45;12.93;;;7.37;;
24801;SDS011;12898;50.520;12.152;2022-10-26T01:57:12;14.17;;;7.40;;
24801;SDS011;12898;50.520;12.152;2022-10-26T02:05:09;15.70;;;6.70;;
24801;SDS011;12898;50.520;12.152;2022-10-26T02:16:16;12.67;;;6.03;;
24801;SDS011;12898;50.520;12.152;2022-10-26T02:18:58;8.60;;;4.90;;
24801;SDS011;12898;50.520;12.152;2022-10-26T02:21:53;11.37;;;6.17;;
24801;SDS011;12898;50.520;12.152;2022-10-26T02:24:31;11.17;;;6.40;;
24801;SDS011;12898;50.520;12.152;2022-10-26T02:26:58;14.07;;;6.60;;
24801;SDS011;12898;50.520;12.152;2022-10-26T02:29:27;10.80;;;5.57;;
24801;SDS011;12898;50.520;12.152;2022-10-26T02:31:55;10.40;;;5.53;;
24801;SDS011;12898;50.520;12.152;2022-10-26T02:34:23;9.13;;;5.00;;
24801;SDS011;12898;50.520;12.152;2022-10-26T02:36:52;9.67;;;5.50;;
24801;SDS011;12898;50.520;12.152;2022-10-26T02:39:21;11.03;;;5.60;;
24801;SDS011;12898;50.520;12.152;2022-10-26T02:41:47;9.50;;;5.70;;
24801;SDS011;12898;50.520;12.152;2022-10-26T02:44:17;10.13;;;5.00;;
24801;SDS011;12898;50.520;12.152;2022-10-26T02:46:54;12.83;;;6.37;;
24801;SDS011;12898;50.520;12.152;2022-10-26T02:49:20;11.20;;;6.37;;
24801;SDS011;12898;50.520;12.152;2022-10-26T02:51:57;12.30;;;5.90;;
24801;SDS011;12898;50.520;12.152;2022-10-26T02:54:47;11.17;;;6.10;;
24801;SDS011;12898;50.520;12.152;2022-10-26T02:57:34;11.17;;;5.90;;
24801;SDS011;12898;50.520;12.152;2022-10-26T03:00:09;9.87;;;5.53;;
24801;SDS011;12898;50.520;12.152;2022-10-26T03:02:40;12.13;;;5.83;;
24801;SDS011;12898;50.520;12.152;2022-10-26T03:05:14;10.83;;;5.60;;
24801;SDS011;12898;50.520;12.152;2022-10-26T03:07:50;11.83;;;5.93;;
24801;SDS011;12898;50.520;12.152;2022-10-26T03:10:16;11.90;;;6.40;;
24801;SDS011;12898;50.520;12.152;2022-10-26T03:12:42;11.83;;;6.87;;
24801;SDS011;12898;50.520;12.152;2022-10-26T03:15:08;12.80;;;7.30;;
24801;SDS011;12898;50.520;12.152;2022-10-26T03:17:34;14.10;;;8.00;;
24801;SDS011;12898;50.520;12.152;2022-10-26T03:19:59;15.73;;;10.10;;
24801;SDS011;12898;50.520;12.152;2022-10-26T03:22:25;16.90;;;10.13;;
24801;SDS011;12898;50.520;12.152;2022-10-26T03:24:51;17.67;;;10.87;;
24801;SDS011;12898;50.520;12.152;2022-10-26T03:27:16;18.03;;;11.90;;
24801;SDS011;12898;50.520;12.152;2022-10-26T03:29:42;18.83;;;11.87;;
24801;SDS011;12898;50.520;12.152;2022-10-26T03:32:08;19.40;;;12.70;;
24801;SDS011;12898;50.520;12.152;2022-10-26T03:34:34;22.40;;;14.60;;
24801;SDS011;12898;50.520;12.152;2022-10-26T03:36:59;20.67;;;14.60;;
24801;SDS011;12898;50.520;12.152;2022-10-26T03:39:25;20.30;;;13.23;;
24801;SDS011;12898;50.520;12.152;2022-10-26T03:41:51;20.73;;;13.97;;
24801;SDS011;12898;50.520;12.152;2022-10-26T03:44:17;22.33;;;12.20;;
24801;SDS011;12898;50.520;12.152;2022-10-26T03:46:42;17.33;;;10.77;;
24801;SDS011;12898;50.520;12.152;2022-10-26T03:49:08;18.63;;;11.10;;
24801;SDS011;12898;50.520;12.152;2022-10-26T03:51:33;15.47;;;9.90;;
24801;SDS011;12898;50.520;12.152;2022-10-26T03:53:59;15.17;;;9.90;;
24801;SDS011;12898;50.520;12.152;2022-10-26T03:56:25;17.73;;;10.80;;
24801;SDS011;12898;50.520;12.152;2022-10-26T03:58:51;16.57;;;9.63;;
24801;SDS011;12898;50.520;12.152;2022-10-26T04:01:16;17.43;;;10.20;;
24801;SDS011;12898;50.520;12.152;2022-10-26T04:03:42;21.10;;;12.03;;
24801;SDS011;12898;50.520;12.152;2022-10-26T04:06:08;24.07;;;12.40;;
24801;SDS011;12898;50.520;12.152;2022-10-26T04:08:33;21.70;;;12.93;;
24801;SDS011;12898;50.520;12.152;2022-10-26T04:10:59;25.20;;;13.20;;
24801;SDS011;12898;50.520;12.152;2022-10-26T04:13:25;22.27;;;12.17;;
24801;SDS011;12898;50.520;12.152;2022-10-26T04:15:51;21.70;;;12.50;;
24801;SDS011;12898;50.520;12.152;2022-10-26T04:18:17;23.80;;;13.00;;
24801;SDS011;12898;50.520;12.152;2022-10-26T04:20:42;24.30;;;11.97;;
24801;SDS011;12898;50.520;12.152;2022-10-26T04:23:12;17.70;;;10.47;;
24801;SDS011;12898;50.520;12.152;2022-10-26T04:25:40;19.33;;;10.30;;
24801;SDS011;12898;50.520;12.152;2022-10-26T04:28:07;19.03;;;11.03;;
24801;SDS011;12898;50.520;12.152;2022-10-26T04:30:34;16.67;;;9.50;;
24801;SDS011;12898;50.520;12.152;2022-10-26T04:33:00;16.70;;;9.23;;
24801;SDS011;12898;50.520;12.152;2022-10-26T04:35:27;16.87;;;9.57;;
24801;SDS011;12898;50.520;12.152;2022-10-26T04:38:05;18.27;;;11.20;;
24801;SDS011;12898;50.520;12.152;2022-10-26T04:40:44;17.93;;;10.07;;
24801;SDS011;12898;50.520;12.152;2022-10-26T04:43:10;16.17;;;9.10;;
24801;SDS011;12898;50.520;12.152;2022-10-26T04:45:35;16.50;;;8.53;;
24801;SDS011;12898;50.520;12.152;2022-10-26T04:48:02;15.17;;;8.53;;
24801;SDS011;12898;50.520;12.152;2022-10-26T04:50:31;14.90;;;8.47;;
24801;SDS011;12898;50.520;12.152;2022-10-26T04:52:58;12.93;;;7.60;;
24801;SDS011;12898;50.520;12.152;2022-10-26T04:55:24;13.33;;;7.80;;
24801;SDS011;12898;50.520;12.152;2022-10-26T04:57:49;14.97;;;8.60;;
24801;SDS011;12898;50.520;12.152;2022-10-26T05:00:15;15.87;;;8.57;;
24801;SDS011;12898;50.520;12.152;2022-10-26T05:02:41;14.00;;;8.63;;
24801;SDS011;12898;50.520;12.152;2022-10-26T05:05:07;14.27;;;8.13;;
24801;SDS011;12898;50.520;12.152;2022-10-26T05:07:33;17.53;;;9.67;;
24801;SDS011;12898;50.520;12.152;2022-10-26T05:09:59;19.00;;;10.20;;
24801;SDS011;12898;50.520;12.152;2022-10-26T05:12:25;18.03;;;11.70;;
24801;SDS011;12898;50.520;12.152;2022-10-26T05:14:53;25.80;;;14.63;;
24801;SDS011;12898;50.520;12.152;2022-10-26T05:17:22;23.57;;;13.27;;
24801;SDS011;12898;50.520;12.152;2022-10-26T05:19:52;24.10;;;15.20;;
24801;SDS011;12898;50.520;12.152;2022-10-26T05:22:25;23.77;;;13.97;;
24801;SDS011;12898;50.520;12.152;2022-10-26T05:24:51;23.70;;;13.93;;
24801;SDS011;12898;50.520;12.152;2022-10-26T05:27:17;23.10;;;13.57;;
24801;SDS011;12898;50.520;12.152;2022-10-26T05:29:43;24.17;;;13.33;;
24801;SDS011;12898;50.520;12.152;2022-10-26T05:32:08;22.13;;;13.20;;
24801;SDS011;12898;50.520;12.152;2022-10-26T05:34:34;22.23;;;12.57;;
24801;SDS011;12898;50.520;12.152;2022-10-26T05:37:00;23.23;;;13.63;;
24801;SDS011;12898;50.520;12.152;2022-10-26T05:39:25;25.67;;;14.00;;
24801;SDS011;12898;50.520;12.152;2022-10-26T05:41:51;21.23;;;12.00;;
24801;SDS011;12898;50.520;12.152;2022-10-26T05:44:16;24.17;;;12.63;;
24801;SDS011;12898;50.520;12.152;2022-10-26T05:46:42;21.27;;;12.53;;
24801;SDS011;12898;50.520;12.152;2022-10-26T05:49:10;19.67;;;11.60;;
24801;SDS011;12898;50.520;12.152;2022-10-26T05:51:36;20.20;;;11.67;;
24801;SDS011;12898;50.520;12.152;2022-10-26T05:54:03;21.10;;;11.87;;
24801;SDS011;12898;50.520;12.152;2022-10-26T05:56:33;18.87;;;11.17;;
24801;SDS011;12898;50.520;12.152;2022-10-26T05:59:04;20.50;;;12.07;;
24801;SDS011;12898;50.520;12.152;2022-10-26T06:01:47;25.23;;;13.37;;
24801;SDS011;12898;50.520;12.152;2022-10-26T06:04:42;25.03;;;14.10;;
24801;SDS011;12898;50.520;12.152;2022-10-26T06:07:15;23.97;;;14.00;;
24801;SDS011;12898;50.520;12.152;2022-10-26T06:09:44;28.97;;;16.37;;
24801;SDS011;12898;50.520;12.152;2022-10-26T06:12:12;29.20;;;16.47;;
24801;SDS011;12898;50.520;12.152;2022-10-26T06:14:38;35.77;;;18.87;;
24801;SDS011;12898;50.520;12.152;2022-10-26T06:20:12;33.47;;;18.25;;
24801;SDS011;12898;50.520;12.152;2022-10-26T06:31:46;35.87;;;21.43;;
24801;SDS011;12898;50.520;12.152;2022-10-26T06:34:13;37.23;;;21.47;;
24801;SDS011;12898;50.520;12.152;2022-10-26T06:36:48;26.80;;;15.17;;
24801;SDS011;12898;50.520;12.152;2022-10-26T06:39:14;24.10;;;12.87;;
24801;SDS011;12898;50.520;12.152;2022-10-26T06:41:41;20.47;;;9.87;;
24801;SDS011;12898;50.520;12.152;2022-10-26T06:44:08;20.10;;;8.50;;
24801;SDS011;12898;50.520;12.152;2022-10-26T06:46:47;14.40;;;7.53;;
24801;SDS011;12898;50.520;12.152;2022-10-26T06:49:43;16.23;;;7.83;;
24801;SDS011;12898;50.520;12.152;2022-10-26T06:52:27;15.18;;;6.90;;
24801;SDS011;12898;50.520;12.152;2022-10-26T06:55:06;15.82;;;6.90;;
24801;SDS011;12898;50.520;12.152;2022-10-26T06:57:38;13.23;;;6.68;;
24801;SDS011;12898;50.520;12.152;2022-10-26T07:02:43;14.68;;;6.50;;
24801;SDS011;12898;50.520;12.152;2022-10-26T07:05:09;13.77;;;6.07;;
24801;SDS011;12898;50.520;12.152;2022-10-26T07:07:38;14.50;;;5.68;;
24801;SDS011;12898;50.520;12.152;2022-10-26T07:10:07;15.35;;;5.57;;
24801;SDS011;12898;50.520;12.152;2022-10-26T07:12:35;13.40;;;5.30;;
24801;SDS011;12898;50.520;12.152;2022-10-26T07:15:02;9.32;;;4.30;;
24801;SDS011;12898;50.520;12.152;2022-10-26T07:17:29;10.30;;;4.30;;
24801;SDS011;12898;50.520;12.152;2022-10-26T07:19:55;9.70;;;4.22;;
24801;SDS011;12898;50.520;12.152;2022-10-26T07:22:21;9.02;;;4.32;;
24801;SDS011;12898;50.520;12.152;2022-10-26T07:24:47;10.13;;;3.88;;
24801;SDS011;12898;50.520;12.152;2022-10-26T07:27:16;11.15;;;3.85;;
24801;SDS011;12898;50.520;12.152;2022-10-26T07:29:45;10.20;;;3.80;;
24801;SDS011;12898;50.520;12.152;2022-10-26T07:32:11;7.60;;;3.20;;
24801;SDS011;12898;50.520;12.152;2022-10-26T07:34:36;8.30;;;3.47;;
24801;SDS011;12898;50.520;12.152;2022-10-26T07:37:02;7.85;;;3.00;;
24801;SDS011;12898;50.520;12.152;2022-10-26T07:39:28;7.85;;;3.30;;
24801;SDS011;12898;50.520;12.152;2022-10-26T07:41:56;8.63;;;3.45;;
24801;SDS011;12898;50.520;12.152;2022-10-26T07:44:22;6.75;;;2.67;;
24801;SDS011;12898;50.520;12.152;2022-10-26T07:46:48;7.72;;;2.63;;
24801;SDS011;12898;50.520;12.152;2022-10-26T07:49:15;6.70;;;2.83;;
24801;SDS011;12898;50.520;12.152;2022-10-26T07:51:41;10.05;;;2.80;;
24801;SDS011;12898;50.520;12.152;2022-10-26T07:54:06;8.30;;;2.70;;
24801;SDS011;12898;50.520;12.152;2022-10-26T07:56:32;6.65;;;2.45;;
24801;SDS011;12898;50.520;12.152;2022-10-26T07:58:58;5.82;;;2.70;;
24801;SDS011;12898;50.520;12.152;2022-10-26T08:01:24;6.07;;;2.67;;
24801;SDS011;12898;50.520;12.152;2022-10-26T08:03:53;8.70;;;2.72;;
24801;SDS011;12898;50.520;12.152;2022-10-26T08:06:20;7.50;;;2.50;;
24801;SDS011;12898;50.520;12.152;2022-10-26T08:08:46;9.75;;;2.55;;
24801;SDS011;12898;50.520;12.152;2022-10-26T08:11:12;7.13;;;2.35;;
24801;SDS011;12898;50.520;12.152;2022-10-26T08:13:38;5.78;;;2.47;;
24801;SDS011;12898;50.520;12.152;2022-10-26T08:16:04;7.03;;;2.40;;
24801;SDS011;12898;50.520;12.152;2022-10-26T08:18:30;11.50;;;2.80;;
24801;SDS011;12898;50.520;12.152;2022-10-26T08:21:03;8.77;;;2.28;;
24801;SDS011;12898;50.520;12.152;2022-10-26T08:23:31;8.82;;;2.58;;
24801;SDS011;12898;50.520;12.152;2022-10-26T08:26:00;4.53;;;2.22;;
24801;SDS011;12898;50.520;12.152;2022-10-26T08:28:28;10.85;;;2.72;;
24801;SDS011;12898;50.520;12.152;2022-10-26T08:30:57;8.98;;;2.70;;
24801;SDS011;12898;50.520;12.152;2022-10-26T08:33:23;5.45;;;2.25;;
24801;SDS011;12898;50.520;12.152;2022-10-26T08:35:56;5.47;;;2.47;;
24801;SDS011;12898;50.520;12.152;2022-10-26T08:38:26;8.57;;;2.92;;
24801;SDS011;12898;50.520;12.152;2022-10-26T08:40:53;5.88;;;2.60;;
24801;SDS011;12898;50.520;12.152;2022-10-26T08:43:37;5.40;;;2.35;;
24801;SDS011;12898;50.520;12.152;2022-10-26T08:46:14;8.55;;;2.20;;
24801;SDS011;12898;50.520;12.152;2022-10-26T08:48:51;6.35;;;2.50;;
24801;SDS011;12898;50.520;12.152;2022-10-26T08:51:22;4.57;;;2.20;;
24801;SDS011;12898;50.520;12.152;2022-10-26T08:54:11;6.40;;;2.35;;
24801;SDS011;12898;50.520;12.152;2022-10-26T08:56:43;7.03;;;2.88;;
24801;SDS011;12898;50.520;12.152;2022-10-26T09:02:02;3.53;;;1.92;;
24801;SDS011;12898;50.520;12.152;2022-10-26T09:04:32;6.93;;;2.85;;
24801;SDS011;12898;50.520;12.152;2022-10-26T09:07:02;9.35;;;2.58;;
24801;SDS011;12898;50.520;12.152;2022-10-26T09:18:15;4.90;;;2.33;;
24801;SDS011;12898;50.520;12.152;2022-10-26T09:27:02;7.07;;;2.65;;
24801;SDS011;12898;50.520;12.152;2022-10-26T09:29:55;6.18;;;2.85;;
24801;SDS011;12898;50.520;12.152;2022-10-26T09:32:26;5.20;;;2.65;;
24801;SDS011;12898;50.520;12.152;2022-10-26T09:35:08;9.18;;;2.58;;
24801;SDS011;12898;50.520;12.152;2022-10-26T09:37:54;4.88;;;2.40;;
24801;SDS011;12898;50.520;12.152;2022-10-26T09:43:16;6.93;;;2.33;;
24801;SDS011;12898;50.520;12.152;2022-10-26T09:45:52;6.50;;;2.60;;
24801;SDS011;12898;50.520;12.152;2022-10-26T09:51:11;4.68;;;2.35;;
24801;SDS011;12898;50.520;12.152;2022-10-26T09:53:40;6.75;;;2.40;;
24801;SDS011;12898;50.520;12.152;2022-10-26T09:56:09;4.40;;;2.60;;
24801;SDS011;12898;50.520;12.152;2022-10-26T09:58:41;5.32;;;2.38;;
24801;SDS011;12898;50.520;12.152;2022-10-26T10:01:19;7.75;;;2.60;;
24801;SDS011;12898;50.520;12.152;2022-10-26T10:04:07;7.68;;;2.70;;
24801;SDS011;12898;50.520;12.152;2022-10-26T10:06:40;5.50;;;2.55;;
24801;SDS011;12898;50.520;12.152;2022-10-26T10:09:10;9.02;;;2.80;;
24801;SDS011;12898;50.520;12.152;2022-10-26T10:11:40;5.80;;;2.92;;
24801;SDS011;12898;50.520;12.152;2022-10-26T10:14:23;6.22;;;2.50;;
24801;SDS011;12898;50.520;12.152;2022-10-26T10:19:22;4.90;;;2.60;;
24801;SDS011;12898;50.520;12.152;2022-10-26T10:21:54;11.90;;;2.65;;
24801;SDS011;12898;50.520;12.152;2022-10-26T10:24:41;6.85;;;3.08;;
24801;SDS011;12898;50.520;12.152;2022-10-26T10:27:18;6.90;;;2.55;;
24801;SDS011;12898;50.520;12.152;2022-10-26T10:29:48;6.25;;;2.58;;
24801;SDS011;12898;50.520;12.152;2022-10-26T10:34:52;5.65;;;2.58;;
24801;SDS011;12898;50.520;12.152;2022-10-26T10:37:53;7.57;;;2.55;;
24801;SDS011;12898;50.520;12.152;2022-10-26T10:40:18;7.43;;;2.55;;
24801;SDS011;12898;50.520;12.152;2022-10-26T10:42:47;8.27;;;2.78;;
24801;SDS011;12898;50.520;12.152;2022-10-26T10:45:26;4.75;;;2.50;;
24801;SDS011;12898;50.520;12.152;2022-10-26T10:48:00;5.28;;;2.58;;
24801;SDS011;12898;50.520;12.152;2022-10-26T10:50:35;11.10;;;2.80;;
24801;SDS011;12898;50.520;12.152;2022-10-26T10:53:17;6.40;;;2.78;;
24801;SDS011;12898;50.520;12.152;2022-10-26T10:55:57;4.85;;;2.58;;
24801;SDS011;12898;50.520;12.152;2022-10-26T10:58:39;9.20;;;2.65;;
24801;SDS011;12898;50.520;12.152;2022-10-26T11:01:22;6.43;;;2.53;;
24801;SDS011;12898;50.520;12.152;2022-10-26T11:04:06;6.07;;;2.80;;
24801;SDS011;12898;50.520;12.152;2022-10-26T11:06:58;5.00;;;2.85;;
24801;SDS011;12898;50.520;12.152;2022-10-26T11:09:28;5.22;;;2.63;;
24801;SDS011;12898;50.520;12.152;2022-10-26T11:12:01;9.60;;;2.85;;
24801;SDS011;12898;50.520;12.152;2022-10-26T11:14:36;5.28;;;2.80;;
24801;SDS011;12898;50.520;12.152;2022-10-26T11:17:08;5.22;;;2.60;;
24801;SDS011;12898;50.520;12.152;2022-10-26T11:22:38;5.50;;;2.42;;
24801;SDS011;12898;50.520;12.152;2022-10-26T11:25:24;5.38;;;2.60;;
24801;SDS011;12898;50.520;12.152;2022-10-26T11:28:05;7.47;;;3.13;;
24801;SDS011;12898;50.520;12.152;2022-10-26T11:30:42;5.70;;;2.80;;
24801;SDS011;12898;50.520;12.152;2022-10-26T11:33:20;6.28;;;2.63;;
24801;SDS011;12898;50.520;12.152;2022-10-26T11:36:03;6.80;;;2.88;;
24801;SDS011;12898;50.520;12.152;2022-10-26T11:41:29;4.80;;;2.50;;
24801;SDS011;12898;50.520;12.152;2022-10-26T11:57:24;7.22;;;2.70;;
24801;SDS011;12898;50.520;12.152;2022-10-26T11:59:56;4.45;;;2.33;;
24801;SDS011;12898;50.520;12.152;2022-10-26T12:02:27;7.70;;;2.65;;
24801;SDS011;12898;50.520;12.152;2022-10-26T12:05:02;6.07;;;2.90;;
24801;SDS011;12898;50.520;12.152;2022-10-26T12:07:57;8.20;;;3.25;;
24801;SDS011;12898;50.520;12.152;2022-10-26T12:10:32;6.88;;;3.10;;
24801;SDS011;12898;50.520;12.152;2022-10-26T12:16:59;10.70;;;3.85;;
24801;SDS011;12898;50.520;12.152;2022-10-26T12:22:10;9.23;;;3.50;;
24801;SDS011;12898;50.520;12.152;2022-10-26T12:24:44;7.15;;;2.58;;
24801;SDS011;12898;50.520;12.152;2022-10-26T12:40:45;8.43;;;3.10;;
24801;SDS011;12898;50.520;12.152;2022-10-26T12:45:38;5.82;;;2.85;;
24801;SDS011;12898;50.520;12.152;2022-10-26T12:50:49;6.88;;;3.00;;
24801;SDS011;12898;50.520;12.152;2022-10-26T12:53:16;6.07;;;2.63;;
24801;SDS011;12898;50.520;12.152;2022-10-26T13:08:55;9.65;;;2.83;;
24801;SDS011;12898;50.520;12.152;2022-10-26T13:11:33;7.20;;;2.78;;
24801;SDS011;12898;50.520;12.152;2022-10-26T13:14:23;6.35;;;3.15;;
24801;SDS011;12898;50.520;12.152;2022-10-26T13:16:59;8.65;;;3.30;;
24801;SDS011;12898;50.520;12.152;2022-10-26T13:22:14;6.10;;;2.58;;
24801;SDS011;12898;50.520;12.152;2022-10-26T13:24:51;8.55;;;3.03;;
24801;SDS011;12898;50.520;12.152;2022-10-26T13:30:15;6.05;;;3.20;;
24801;SDS011;12898;50.520;12.152;2022-10-26T13:33:01;5.45;;;2.67;;
24801;SDS011;12898;50.520;12.152;2022-10-26T13:35:32;5.97;;;2.80;;
24801;SDS011;12898;50.520;12.152;2022-10-26T13:37:58;11.50;;;3.08;;
24801;SDS011;12898;50.520;12.152;2022-10-26T13:40:31;5.53;;;2.72;;
24801;SDS011;12898;50.520;12.152;2022-10-26T13:43:02;4.70;;;2.50;;
24801;SDS011;12898;50.520;12.152;2022-10-26T13:45:33;8.73;;;2.60;;
24801;SDS011;12898;50.520;12.152;2022-10-26T13:48:19;6.05;;;2.30;;
24801;SDS011;12898;50.520;12.152;2022-10-26T13:51:12;5.00;;;2.50;;
24801;SDS011;12898;50.520;12.152;2022-10-26T13:56:39;9.85;;;3.28;;
24801;SDS011;12898;50.520;12.152;2022-10-26T13:59:19;5.45;;;2.58;;
24801;SDS011;12898;50.520;12.152;2022-10-26T14:01:46;5.82;;;2.50;;
24801;SDS011;12898;50.520;12.152;2022-10-26T14:04:44;4.90;;;2.33;;
24801;SDS011;12898;50.520;12.152;2022-10-26T14:07:20;9.63;;;2.60;;
24801;SDS011;12898;50.520;12.152;2022-10-26T14:09:51;8.48;;;2.22;;
24801;SDS011;12898;50.520;12.152;2022-10-26T14:12:20;6.50;;;2.35;;
24801;SDS011;12898;50.520;12.152;2022-10-26T14:14:47;9.93;;;2.65;;
24801;SDS011;12898;50.520;12.152;2022-10-26T14:17:18;8.40;;;2.40;;
24801;SDS011;12898;50.520;12.152;2022-10-26T14:19:49;5.50;;;2.28;;
24801;SDS011;12898;50.520;12.152;2022-10-26T14:22:18;8.20;;;2.70;;
24801;SDS011;12898;50.520;12.152;2022-10-26T14:24:50;7.72;;;2.50;;
24801;SDS011;12898;50.520;12.152;2022-10-26T14:27:22;6.43;;;2.67;;
24801;SDS011;12898;50.520;12.152;2022-10-26T14:29:55;6.28;;;2.28;;
24801;SDS011;12898;50.520;12.152;2022-10-26T14:32:26;9.00;;;2.50;;
24801;SDS011;12898;50.520;12.152;2022-10-26T14:34:59;8.73;;;2.63;;
24801;SDS011;12898;50.520;12.152;2022-10-26T14:37:36;6.45;;;2.47;;
24801;SDS011;12898;50.520;12.152;2022-10-26T14:40:13;6.63;;;2.72;;
24801;SDS011;12898;50.520;12.152;2022-10-26T14:42:42;8.35;;;2.75;;
24801;SDS011;12898;50.520;12.152;2022-10-26T14:45:26;7.00;;;2.75;;
24801;SDS011;12898;50.520;12.152;2022-10-26T14:48:01;7.35;;;2.95;;
24801;SDS011;12898;50.520;12.152;2022-10-26T14:50:29;9.30;;;2.38;;
24801;SDS011;12898;50.520;12.152;2022-10-26T14:52:57;12.00;;;2.97;;
24801;SDS011;12898;50.520;12.152;2022-10-26T14:55:27;5.55;;;2.70;;
24801;SDS011;12898;50.520;12.152;2022-10-26T14:58:04;9.80;;;2.67;;
24801;SDS011;12898;50.520;12.152;2022-10-26T15:03:47;5.82;;;2.45;;
24801;SDS011;12898;50.520;12.152;2022-10-26T15:06:28;6.05;;;2.55;;
24801;SDS011;12898;50.520;12.152;2022-10-26T15:08:57;7.43;;;2.67;;
24801;SDS011;12898;50.520;12.152;2022-10-26T15:11:29;8.38;;;2.65;;
24801;SDS011;12898;50.520;12.152;2022-10-26T15:13:59;9.68;;;3.28;;
24801;SDS011;12898;50.520;12.152;2022-10-26T15:16:34;11.60;;;3.00;;
24801;SDS011;12898;50.520;12.152;2022-10-26T15:19:10;7.72;;;3.28;;
24801;SDS011;12898;50.520;12.152;2022-10-26T15:21:46;8.50;;;2.53;;
24801;SDS011;12898;50.520;12.152;2022-10-26T15:24:25;7.90;;;2.63;;
24801;SDS011;12898;50.520;12.152;2022-10-26T15:26:57;9.00;;;2.78;;
24801;SDS011;12898;50.520;12.152;2022-10-26T15:29:39;8.45;;;3.13;;
24801;SDS011;12898;50.520;12.152;2022-10-26T15:35:44;8.30;;;2.92;;
24801;SDS011;12898;50.520;12.152;2022-10-26T15:37:57;10.05;;;3.30;;
24801;SDS011;12898;50.520;12.152;2022-10-26T15:40:25;8.75;;;3.20;;
24801;SDS011;12898;50.520;12.152;2022-10-26T15:42:52;9.65;;;3.58;;
24801;SDS011;12898;50.520;12.152;2022-10-26T15:47:54;7.05;;;2.80;;
24801;SDS011;12898;50.520;12.152;2022-10-26T15:50:23;5.93;;;2.80;;
24801;SDS011;12898;50.520;12.152;2022-10-26T15:52:55;7.90;;;2.75;;
24801;SDS011;12898;50.520;12.152;2022-10-26T15:55:29;9.32;;;3.22;;
24801;SDS011;12898;50.520;12.152;2022-10-26T15:57:55;8.57;;;3.30;;
24801;SDS011;12898;50.520;12.152;2022-10-26T16:00:21;8.35;;;3.22;;
24801;SDS011;12898;50.520;12.152;2022-10-26T16:02:48;6.90;;;3.60;;
24801;SDS011;12898;50.520;12.152;2022-10-26T16:05:14;10.05;;;3.78;;
24801;SDS011;12898;50.520;12.152;2022-10-26T16:07:41;10.02;;;3.45;;
24801;SDS011;12898;50.520;12.152;2022-10-26T16:10:14;8.52;;;3.45;;
24801;SDS011;12898;50.520;12.152;2022-10-26T16:12:45;11.00;;;3.58;;
24801;SDS011;12898;50.520;12.152;2022-10-26T16:15:14;8.48;;;3.40;;
24801;SDS011;12898;50.520;12.152;2022-10-26T16:17:51;8.75;;;3.53;;
24801;SDS011;12898;50.520;12.152;2022-10-26T16:20:21;7.82;;;3.58;;
24801;SDS011;12898;50.520;12.152;2022-10-26T16:22:49;6.95;;;3.47;;
24801;SDS011;12898;50.520;12.152;2022-10-26T16:25:16;7.25;;;3.38;;
24801;SDS011;12898;50.520;12.152;2022-10-26T16:27:48;9.20;;;3.67;;
24801;SDS011;12898;50.520;12.152;2022-10-26T16:30:15;9.05;;;3.60;;
24801;SDS011;12898;50.520;12.152;2022-10-26T16:32:41;11.70;;;4.30;;
24801;SDS011;12898;50.520;12.152;2022-10-26T16:35:12;9.25;;;4.65;;
24801;SDS011;12898;50.520;12.152;2022-10-26T16:37:38;9.77;;;4.10;;
24801;SDS011;12898;50.520;12.152;2022-10-26T16:40:07;10.50;;;4.57;;
24801;SDS011;12898;50.520;12.152;2022-10-26T16:42:34;11.20;;;5.63;;
24801;SDS011;12898;50.520;12.152;2022-10-26T16:45:00;10.60;;;4.90;;
24801;SDS011;12898;50.520;12.152;2022-10-26T16:47:26;10.38;;;4.50;;
24801;SDS011;12898;50.520;12.152;2022-10-26T16:49:52;9.65;;;4.35;;
24801;SDS011;12898;50.520;12.152;2022-10-26T16:52:17;14.30;;;5.63;;
24801;SDS011;12898;50.520;12.152;2022-10-26T16:54:43;14.05;;;5.03;;
24801;SDS011;12898;50.520;12.152;2022-10-26T16:57:09;14.90;;;5.85;;
24801;SDS011;12898;50.520;12.152;2022-10-26T16:59:35;12.32;;;5.95;;
24801;SDS011;12898;50.520;12.152;2022-10-26T17:02:00;9.02;;;5.03;;
24801;SDS011;12898;50.520;12.152;2022-10-26T17:04:26;8.98;;;5.18;;
24801;SDS011;12898;50.520;12.152;2022-10-26T17:06:54;12.15;;;5.85;;
24801;SDS011;12898;50.520;12.152;2022-10-26T17:09:20;11.18;;;5.90;;
24801;SDS011;12898;50.520;12.152;2022-10-26T17:11:48;13.93;;;5.93;;
24801;SDS011;12898;50.520;12.152;2022-10-26T17:14:14;12.45;;;5.55;;
24801;SDS011;12898;50.520;12.152;2022-10-26T17:16:40;13.10;;;6.10;;
24801;SDS011;12898;50.520;12.152;2022-10-26T17:19:05;11.18;;;5.53;;